createdAt,value
2022-12-03T00:01:14.379Z,27.00
2022-12-03T00:03:43.482Z,28.83
2022-12-03T00:06:10.093Z,31.67
2022-12-03T00:08:36.701Z,28.63
2022-12-03T00:11:03.178Z,31.83
2022-12-03T00:13:29.723Z,28.15
2022-12-03T00:15:56.371Z,28.85
2022-12-03T06:32:48.343Z,31.00
2022-12-03T06:35:15.796Z,30.25
2022-12-03T06:37:42.305Z,34.70
2022-12-03T06:40:09.326Z,34.97
2022-12-03T06:42:35.835Z,32.58
2022-12-03T06:45:02.395Z,30.77
2022-12-03T06:47:29.033Z,30.08
2022-12-03T06:49:56.543Z,31.87
2022-12-03T06:52:23.095Z,30.65
2022-12-03T06:54:49.611Z,29.88
2022-12-03T06:57:16.379Z,31.63
2022-12-03T06:59:42.883Z,34.83
2022-12-03T07:02:11.226Z,35.47
2022-12-03T07:04:42.044Z,33.47
2022-12-03T07:07:11.490Z,31.52
2022-12-03T07:09:38.053Z,34.42
2022-12-03T07:12:04.789Z,34.55
2022-12-03T07:14:31.318Z,35.80
2022-12-03T07:16:57.868Z,33.08
2022-12-03T07:19:30.704Z,34.40
2022-12-03T07:21:59.142Z,32.55
2022-12-03T07:24:25.684Z,37.35
2022-12-03T07:26:52.233Z,34.43
2022-12-03T07:29:18.822Z,33.88
2022-12-03T07:31:45.644Z,36.65
2022-12-03T07:34:12.391Z,35.70
2022-12-03T07:36:39.034Z,35.60
2022-12-03T07:39:05.694Z,39.13
2022-12-03T07:41:32.331Z,37.88
2022-12-03T07:43:58.907Z,38.42
2022-12-03T07:46:25.734Z,37.20
2022-12-03T07:48:52.744Z,37.25
2022-12-03T07:51:19.484Z,39.10
2022-12-03T07:53:46.044Z,40.78
2022-12-03T07:56:12.666Z,37.60
2022-12-03T07:58:39.252Z,37.10
2022-12-03T08:01:05.949Z,37.75
2022-12-03T08:03:32.535Z,37.77
2022-12-03T08:05:59.127Z,43.17
2022-12-03T08:08:25.661Z,39.10
2022-12-03T08:10:52.194Z,37.58
2022-12-03T08:13:19.973Z,38.25
2022-12-03T08:15:47.071Z,38.00
2022-12-03T08:18:17.117Z,39.35
2022-12-03T08:20:45.846Z,40.20
2022-12-03T08:23:23.312Z,39.25
2022-12-03T08:25:51.648Z,38.20
2022-12-03T08:28:26.574Z,34.60
2022-12-03T08:31:02.562Z,36.72
2022-12-03T08:33:37.240Z,41.08
2022-12-03T08:36:14.692Z,34.75
2022-12-03T08:38:41.436Z,38.42
2022-12-03T08:41:14.418Z,40.73
2022-12-03T08:43:43.788Z,39.83
2022-12-03T08:46:19.514Z,39.88
2022-12-03T08:48:49.105Z,37.58
2022-12-03T08:51:25.102Z,39.88
2022-12-03T08:54:01.496Z,38.37
2022-12-03T08:56:30.824Z,36.47
2022-12-03T08:59:16.648Z,43.25
2022-12-03T09:01:47.196Z,37.75
2022-12-03T09:04:29.090Z,40.08
2022-12-03T09:06:56.167Z,42.53
2022-12-03T09:09:24.045Z,42.08
2022-12-03T09:11:52.543Z,40.05
2022-12-03T09:14:21.261Z,42.75
2022-12-03T09:16:48.636Z,39.42
2022-12-03T09:19:16.507Z,41.30
2022-12-03T09:21:43.040Z,40.10
2022-12-03T09:24:09.595Z,40.90
2022-12-03T09:26:37.487Z,40.70
2022-12-03T09:29:07.634Z,41.53
2022-12-03T09:31:38.462Z,39.77
2022-12-03T09:34:05.627Z,39.30
2022-12-03T09:36:32.186Z,44.40
2022-12-03T09:38:58.998Z,42.97
2022-12-03T09:41:26.465Z,46.55
2022-12-03T09:44:15.548Z,42.43
2022-12-03T09:46:41.551Z,47.30
2022-12-03T09:49:15.754Z,49.33
2022-12-03T09:51:44.894Z,45.58
2022-12-03T09:54:23.813Z,51.42
2022-12-03T09:56:50.547Z,47.20
2022-12-03T09:59:17.577Z,52.30
2022-12-03T10:01:44.649Z,49.75
2022-12-03T10:04:12.584Z,48.70
2022-12-03T10:06:45.248Z,52.05
2022-12-03T10:09:14.697Z,47.63
2022-12-03T10:11:41.266Z,45.33
2022-12-03T10:14:10.670Z,46.15
2022-12-03T10:16:40.294Z,47.50
2022-12-03T10:19:11.603Z,45.85
2022-12-03T10:21:44.007Z,44.90
2022-12-03T10:24:26.274Z,49.33
2022-12-03T10:26:55.977Z,51.05
2022-12-03T10:29:34.269Z,46.22
2022-12-03T10:32:07.546Z,47.42
2022-12-03T10:34:39.927Z,48.80
2022-12-03T10:37:20.561Z,46.70
2022-12-03T10:39:56.673Z,47.40
2022-12-03T10:42:24.438Z,47.58
2022-12-03T10:45:07.720Z,51.92
2022-12-03T10:47:34.478Z,52.93
2022-12-03T10:50:04.040Z,55.63
2022-12-03T10:52:30.697Z,51.78
2022-12-03T10:54:57.561Z,48.83
2022-12-03T10:57:24.689Z,49.25
2022-12-03T10:59:51.379Z,47.90
2022-12-03T11:02:24.035Z,45.38
2022-12-03T11:04:51.219Z,45.78
2022-12-03T11:07:20.009Z,39.47
2022-12-03T11:09:50.131Z,40.47
2022-12-03T11:12:23.538Z,44.93
2022-12-03T11:14:54.047Z,47.30
2022-12-03T11:17:49.188Z,46.83
2022-12-03T11:20:24.792Z,43.53
2022-12-03T11:22:53.451Z,45.10
2022-12-03T11:25:25.953Z,44.53
2022-12-03T11:28:21.858Z,49.13
2022-12-03T11:30:51.584Z,42.90
2022-12-03T11:33:36.455Z,42.25
2022-12-03T11:36:10.193Z,48.83
2022-12-03T11:38:50.684Z,43.57
2022-12-03T11:41:30.448Z,53.05
2022-12-03T11:43:59.145Z,40.08
2022-12-03T11:46:38.155Z,38.92
2022-12-03T11:49:29.725Z,39.67
2022-12-03T11:51:58.628Z,38.93
2022-12-03T11:54:25.347Z,44.40
2022-12-03T11:56:52.987Z,38.92
2022-12-03T11:59:20.188Z,41.30
2022-12-03T12:01:47.273Z,42.28
2022-12-03T12:04:30.269Z,45.90
2022-12-03T12:06:56.933Z,41.78
2022-12-03T12:09:53.692Z,41.33
2022-12-03T12:12:39.287Z,46.40
2022-12-03T12:15:42.532Z,49.53
2022-12-03T12:18:41.964Z,48.13
2022-12-03T12:21:43.025Z,44.13
2022-12-03T12:24:31.993Z,46.53
2022-12-03T12:27:06.426Z,46.35
2022-12-03T12:29:34.453Z,47.08
2022-12-03T12:32:14.429Z,50.20
2022-12-03T12:34:46.458Z,43.45
2022-12-03T12:37:16.959Z,44.95
2022-12-03T12:39:43.510Z,44.60
2022-12-03T12:42:52.330Z,46.70
2022-12-03T12:45:23.969Z,49.77
2022-12-03T12:48:47.546Z,45.53
2022-12-03T12:51:18.743Z,44.60
2022-12-03T12:53:46.011Z,45.67
2022-12-03T12:56:30.254Z,49.17
2022-12-03T12:59:01.346Z,44.63
2022-12-03T13:01:32.513Z,45.75
2022-12-03T13:03:59.707Z,44.50
2022-12-03T13:06:28.688Z,42.03
2022-12-03T13:08:56.044Z,40.03
2022-12-03T13:11:25.435Z,37.93
2022-12-03T13:13:52.515Z,47.13
2022-12-03T13:16:37.199Z,42.55
2022-12-03T13:19:19.349Z,45.58
2022-12-03T13:21:46.092Z,42.60
2022-12-03T13:24:35.558Z,37.77
2022-12-03T13:27:17.398Z,43.00
2022-12-03T13:30:02.811Z,42.88
2022-12-03T13:32:40.225Z,42.58
2022-12-03T13:35:09.843Z,41.60
2022-12-03T13:37:37.502Z,44.17
2022-12-03T13:40:37.449Z,44.95
2022-12-03T13:43:16.727Z,38.88
2022-12-03T13:45:45.089Z,40.33
2022-12-03T13:48:23.098Z,43.13
2022-12-03T13:50:50.774Z,42.53
2022-12-03T13:53:26.515Z,42.30
2022-12-03T13:56:17.995Z,37.25
2022-12-03T13:58:44.515Z,41.50
2022-12-03T14:01:11.120Z,38.83
2022-12-03T14:03:37.719Z,39.80
2022-12-03T14:06:04.311Z,41.30
2022-12-03T14:08:30.831Z,39.65
2022-12-03T14:11:00.399Z,36.47
2022-12-03T14:13:27.323Z,35.30
2022-12-03T14:15:54.029Z,35.47
2022-12-03T14:18:20.579Z,37.03
2022-12-03T14:20:48.199Z,38.40
2022-12-03T14:23:14.955Z,34.40
2022-12-03T14:25:43.949Z,38.15
2022-12-03T14:28:10.821Z,34.77
2022-12-03T14:30:37.437Z,33.53
2022-12-03T14:33:04.817Z,36.00
2022-12-03T14:35:31.388Z,39.60
2022-12-03T14:37:57.914Z,37.03
2022-12-03T14:40:24.440Z,40.70
2022-12-03T14:42:50.970Z,36.85
2022-12-03T14:45:17.577Z,39.67
2022-12-03T14:47:44.150Z,35.47
2022-12-03T14:50:14.306Z,35.50
2022-12-03T14:52:41.159Z,40.47
2022-12-03T14:55:08.056Z,42.58
2022-12-03T14:57:34.556Z,35.83
2022-12-03T15:00:01.081Z,38.50
2022-12-03T15:02:27.752Z,43.88
2022-12-03T15:04:54.277Z,39.27
2022-12-03T15:07:21.213Z,42.22
2022-12-03T15:09:47.825Z,41.95
2022-12-03T15:12:14.347Z,38.67
2022-12-03T15:14:41.384Z,42.20
2022-12-03T15:17:08.073Z,41.93
2022-12-03T15:19:34.701Z,46.78
2022-12-03T15:22:01.220Z,47.28
2022-12-03T15:24:27.816Z,49.75
2022-12-03T15:26:54.496Z,53.80
2022-12-03T15:29:21.114Z,54.83
2022-12-03T15:31:47.764Z,44.33
2022-12-03T15:34:20.331Z,50.05
2022-12-03T15:36:48.935Z,53.35
2022-12-03T15:39:15.455Z,61.63
2022-12-03T15:41:42.085Z,51.23
2022-12-03T15:44:08.638Z,54.05
2022-12-03T15:46:35.675Z,52.22
2022-12-03T15:49:02.244Z,50.50
2022-12-03T15:51:28.776Z,52.58
2022-12-03T15:53:55.276Z,49.40
2022-12-03T15:56:21.850Z,48.28
2022-12-03T15:58:48.460Z,53.63
2022-12-03T16:01:15.189Z,56.00
2022-12-03T16:03:41.843Z,50.80
2022-12-03T16:06:09.443Z,48.17
2022-12-03T16:08:36.186Z,49.90
2022-12-03T16:11:02.736Z,49.25
2022-12-03T16:13:29.302Z,53.65
2022-12-03T16:15:55.933Z,53.30
2022-12-03T16:18:22.448Z,49.07
2022-12-03T16:20:49.117Z,53.03
2022-12-03T16:23:15.754Z,50.35
2022-12-03T16:25:42.257Z,51.45
2022-12-03T16:28:08.822Z,49.80
2022-12-03T16:30:36.977Z,55.60
2022-12-03T16:33:03.758Z,51.03
2022-12-03T16:35:30.404Z,51.78
2022-12-03T16:37:56.984Z,48.28
2022-12-03T16:40:23.488Z,49.97
2022-12-03T16:42:50.075Z,57.33
2022-12-03T16:45:33.318Z,52.95
2022-12-03T16:48:01.434Z,49.95
2022-12-03T16:50:30.120Z,47.83
2022-12-03T16:52:57.723Z,57.10
2022-12-03T16:55:24.516Z,48.50
2022-12-03T16:57:51.066Z,54.70
2022-12-03T17:00:17.806Z,60.15
2022-12-03T17:02:44.457Z,52.67
2022-12-03T17:05:11.084Z,57.83
2022-12-03T17:07:37.779Z,57.90
2022-12-03T17:10:04.943Z,55.47
2022-12-03T17:12:54.108Z,56.30
2022-12-03T17:15:18.037Z,51.80
2022-12-03T17:17:44.536Z,45.30
2022-12-03T17:20:12.585Z,41.70
2022-12-03T17:22:39.201Z,54.97
2022-12-03T17:25:06.005Z,53.40
2022-12-03T17:27:32.687Z,50.70
2022-12-03T17:29:59.287Z,51.25
2022-12-03T17:32:26.420Z,47.57
2022-12-03T17:34:52.950Z,51.53
2022-12-03T17:37:20.712Z,52.10
2022-12-03T17:39:47.256Z,52.05
2022-12-03T17:42:14.196Z,50.67
2022-12-03T17:44:40.761Z,48.60
2022-12-03T17:47:07.444Z,47.53
2022-12-03T17:49:33.964Z,51.92
2022-12-03T17:52:01.372Z,50.33
2022-12-03T17:54:49.130Z,53.75
2022-12-03T17:57:15.381Z,46.57
2022-12-03T17:59:43.991Z,54.85
2022-12-03T18:02:10.554Z,47.58
2022-12-03T18:04:37.202Z,52.90
2022-12-03T18:07:03.741Z,47.72
2022-12-03T18:09:30.292Z,51.17
2022-12-03T18:11:56.963Z,49.97
2022-12-03T18:14:23.529Z,54.20
2022-12-03T18:16:50.061Z,47.15
2022-12-03T18:19:16.611Z,51.03
2022-12-03T18:21:43.282Z,52.07
2022-12-03T18:24:10.196Z,50.42
2022-12-03T18:26:37.022Z,49.30
2022-12-03T18:29:03.863Z,50.13
2022-12-03T18:31:30.571Z,52.30
2022-12-03T18:33:57.218Z,49.83
2022-12-03T18:36:26.058Z,50.63
2022-12-03T18:38:55.340Z,48.70
2022-12-03T18:41:23.650Z,49.33
2022-12-03T18:43:50.785Z,49.00
2022-12-03T18:46:51.210Z,49.57
2022-12-03T18:49:05.435Z,49.15
2022-12-03T18:51:32.006Z,47.03
2022-12-03T18:53:58.537Z,53.17
2022-12-03T18:56:25.170Z,53.65
2022-12-03T18:58:51.676Z,58.47
2022-12-03T19:01:20.688Z,55.03
2022-12-03T19:03:47.961Z,51.08
2022-12-03T19:06:19.712Z,56.13
2022-12-03T19:08:48.666Z,56.13
2022-12-03T19:11:15.599Z,57.33
2022-12-03T19:13:42.881Z,55.30
2022-12-03T19:16:12.216Z,56.35
2022-12-03T19:18:39.648Z,61.13
2022-12-03T19:21:11.092Z,57.22
2022-12-03T19:23:38.072Z,56.57
2022-12-03T19:26:07.123Z,59.70
2022-12-03T19:28:34.101Z,62.22
2022-12-03T19:31:15.085Z,58.90
2022-12-03T19:33:42.747Z,59.08
2022-12-03T19:36:20.868Z,59.00
2022-12-03T19:38:56.619Z,61.17
2022-12-03T19:41:27.345Z,56.50
2022-12-03T19:43:55.761Z,57.03
2022-12-03T19:46:24.547Z,58.88
2022-12-03T19:48:51.412Z,66.30
2022-12-03T19:51:34.092Z,61.08
2022-12-03T19:54:01.748Z,61.80
2022-12-03T19:56:30.275Z,58.97
2022-12-03T19:58:57.588Z,65.35
2022-12-03T20:01:27.233Z,61.03
2022-12-03T20:03:55.990Z,62.83
2022-12-03T20:06:24.986Z,58.95
2022-12-03T20:08:58.933Z,66.80
2022-12-03T20:11:28.220Z,65.68
2022-12-03T20:13:56.885Z,67.03
2022-12-03T20:16:25.091Z,61.17
2022-12-03T20:18:55.511Z,68.88
2022-12-03T20:21:22.363Z,64.47
2022-12-03T20:23:49.000Z,63.78
2022-12-03T20:26:17.961Z,66.63
2022-12-03T20:28:45.668Z,66.03
2022-12-03T20:31:16.925Z,63.75
2022-12-03T20:33:46.217Z,66.70
2022-12-03T20:36:14.841Z,58.70
2022-12-03T20:38:41.588Z,65.50
2022-12-03T20:41:14.460Z,66.60
2022-12-03T20:43:41.792Z,67.28
2022-12-03T20:46:10.514Z,62.47
2022-12-03T20:48:37.419Z,65.10
2022-12-03T20:51:05.970Z,60.80
2022-12-03T20:53:33.169Z,64.00
2022-12-03T20:56:01.226Z,62.72
2022-12-03T20:58:28.973Z,63.13
2022-12-03T21:00:55.586Z,73.05
2022-12-03T21:03:22.151Z,62.20
2022-12-03T21:05:48.774Z,63.38
2022-12-03T21:08:15.447Z,69.25
2022-12-03T21:10:45.634Z,60.08
2022-12-03T21:13:16.677Z,63.40
2022-12-03T21:15:44.308Z,66.70
2022-12-03T21:18:14.362Z,65.55
2022-12-03T21:20:47.499Z,69.30
2022-12-03T21:23:14.850Z,64.35
2022-12-03T21:25:41.341Z,67.15
2022-12-03T21:28:09.402Z,57.63
2022-12-03T21:30:39.955Z,61.80
2022-12-03T21:33:07.038Z,57.65
2022-12-03T21:35:36.823Z,64.05
2022-12-03T21:38:03.719Z,58.97
2022-12-03T21:40:30.441Z,60.90
2022-12-03T21:42:57.583Z,63.55
2022-12-03T21:45:25.033Z,60.72
2022-12-03T21:47:51.822Z,60.67
2022-12-03T21:50:18.625Z,58.35
2022-12-03T21:52:45.232Z,58.97
2022-12-03T21:55:11.860Z,61.47
2022-12-03T21:57:38.612Z,59.15
2022-12-03T22:00:07.790Z,56.40
2022-12-03T22:02:35.034Z,58.60
2022-12-03T22:05:01.715Z,61.03
2022-12-03T22:07:28.287Z,60.42
2022-12-03T22:09:55.152Z,62.00
2022-12-03T22:12:21.912Z,61.25
2022-12-03T22:14:48.460Z,59.92
2022-12-03T22:17:15.041Z,59.73
2022-12-03T22:19:42.216Z,58.83
2022-12-03T22:22:11.424Z,57.40
2022-12-03T22:24:38.787Z,62.63
2022-12-03T22:27:05.749Z,60.30
2022-12-03T22:29:32.520Z,66.77
2022-12-03T22:32:00.441Z,57.50
2022-12-03T22:34:27.394Z,60.05
2022-12-03T22:36:55.620Z,60.50
2022-12-03T22:39:22.406Z,59.45
2022-12-03T22:41:49.354Z,57.30
2022-12-03T22:44:17.244Z,54.75
2022-12-03T22:46:43.862Z,58.42
2022-12-03T22:49:12.765Z,58.72
2022-12-03T22:51:39.326Z,60.13
2022-12-03T22:54:05.920Z,60.57
2022-12-03T22:56:33.143Z,58.83
2022-12-03T22:58:59.973Z,61.92
2022-12-03T23:01:32.583Z,54.63
2022-12-03T23:04:00.112Z,63.65
2022-12-03T23:06:27.287Z,61.40
2022-12-03T23:08:54.872Z,58.53
2022-12-03T23:11:22.433Z,58.72
2022-12-03T23:13:49.035Z,59.35
2022-12-03T23:16:24.396Z,61.22
2022-12-03T23:18:51.164Z,56.33
2022-12-03T23:21:28.488Z,59.63
2022-12-03T23:23:56.829Z,61.28
2022-12-03T23:26:23.421Z,58.95
2022-12-03T23:28:50.000Z,59.67
2022-12-03T23:31:26.508Z,61.67
2022-12-03T23:33:54.295Z,59.22
2022-12-03T23:36:23.024Z,62.30
2022-12-03T23:38:50.152Z,62.33
2022-12-03T23:41:19.801Z,59.95
2022-12-03T23:43:47.009Z,66.03
2022-12-03T23:46:17.163Z,61.13
2022-12-03T23:48:44.300Z,59.67
2022-12-03T23:51:14.200Z,57.75
2022-12-03T23:53:41.289Z,61.03
2022-12-03T23:56:08.453Z,57.77
2022-12-03T23:58:36.127Z,61.72
